Time;durP1;ratioP1;P1;durP2;ratioP2;P2;SDS_P1;SDS_P2;PMS_P1;PMS_P2;Temp;Humidity;BMP_temperature;BMP_pressure;BME280_temperature;BME280_humidity;BME280_pressure;Samples;Min_cycle;Max_cycle;Signal;HPM_P1;HPM_P2
2022/12/06 00:01:16;;;;;;;10.75;3.35;;;4.80;99.90;;;;;;5119255;27;20043;-79
2022/12/06 00:03:43;;;;;;;13.80;3.60;;;4.80;99.90;;;;;;5120035;27;20196;-79
2022/12/06 00:06:12;;;;;;;10.02;3.13;;;4.70;99.90;;;;;;5113314;27;20118;-79
2022/12/06 00:08:39;;;;;;;8.57;3.20;;;4.70;99.90;;;;;;5122140;27;20117;-79
2022/12/06 00:11:19;;;;;;;8.25;3.42;;;4.80;99.90;;;;;;5117679;27;20031;-79
2022/12/06 00:13:46;;;;;;;7.47;3.33;;;4.80;99.90;;;;;;5116254;27;20035;-79
2022/12/06 00:16:14;;;;;;;11.45;3.72;;;4.80;99.90;;;;;;5113257;27;20036;-79
2022/12/06 00:18:41;;;;;;;7.72;3.05;;;4.70;99.90;;;;;;5124110;27;20113;-79
2022/12/06 00:21:11;;;;;;;7.50;3.28;;;4.80;99.90;;;;;;5118574;27;20047;-80
2022/12/06 00:23:38;;;;;;;11.13;3.53;;;4.70;99.90;;;;;;5117085;27;20052;-78
2022/12/06 00:26:05;;;;;;;8.27;3.30;;;4.70;99.90;;;;;;5124092;27;20114;-78
2022/12/06 00:28:32;;;;;;;10.32;3.30;;;4.70;99.90;;;;;;5117357;27;20397;-79
2022/12/06 00:30:58;;;;;;;8.63;3.50;;;4.80;99.90;;;;;;5114992;27;20047;-79
2022/12/06 00:33:24;;;;;;;7.13;3.92;;;4.70;99.90;;;;;;5119928;27;20349;-79
2022/12/06 00:35:57;;;;;;;7.63;3.50;;;4.70;99.90;;;;;;5115593;28;20134;-79
2022/12/06 00:38:23;;;;;;;10.75;3.88;;;4.70;99.90;;;;;;5113052;27;20072;-79
2022/12/06 00:40:49;;;;;;;8.40;3.67;;;4.70;99.90;;;;;;5117006;27;20043;-79
2022/12/06 00:43:15;;;;;;;10.25;4.30;;;4.70;99.90;;;;;;5111736;27;20031;-79
2022/12/06 00:45:42;;;;;;;9.85;4.10;;;4.70;99.90;;;;;;5096595;27;20120;-79
2022/12/06 00:48:07;;;;;;;6.55;3.30;;;4.70;99.90;;;;;;5117080;27;20046;-79
2022/12/06 00:50:33;;;;;;;10.98;3.70;;;4.70;99.90;;;;;;5113281;27;20107;-79
2022/12/06 00:52:58;;;;;;;6.20;3.53;;;4.70;99.90;;;;;;5115961;27;20079;-78
2022/12/06 00:55:24;;;;;;;6.35;3.70;;;4.70;99.90;;;;;;5097596;28;20478;-79
2022/12/06 00:57:49;;;;;;;7.32;2.92;;;4.70;99.90;;;;;;5113343;28;20043;-78
2022/12/06 01:00:15;;;;;;;4.90;2.50;;;4.70;99.90;;;;;;5118390;27;20130;-79
2022/12/06 01:02:41;;;;;;;6.55;2.75;;;4.70;99.90;;;;;;5117427;28;20451;-79
2022/12/06 01:05:06;;;;;;;7.32;2.70;;;4.70;99.90;;;;;;5115219;28;20031;-79
2022/12/06 01:07:32;;;;;;;7.25;2.67;;;4.70;99.90;;;;;;5121086;28;20039;-79
2022/12/06 01:09:57;;;;;;;8.57;2.63;;;4.70;99.90;;;;;;5114861;28;20039;-79
2022/12/06 01:12:23;;;;;;;8.10;2.45;;;4.70;99.90;;;;;;5113371;28;20501;-79
2022/12/06 01:14:49;;;;;;;6.85;2.50;;;4.70;99.90;;;;;;5112052;28;20122;-78
2022/12/06 01:17:14;;;;;;;4.95;2.50;;;4.70;99.90;;;;;;5110626;28;20039;-79
2022/12/06 01:19:40;;;;;;;3.83;2.00;;;4.70;99.90;;;;;;5110897;28;20410;-79
2022/12/06 01:22:05;;;;;;;7.95;2.38;;;4.70;99.90;;;;;;5112810;27;20046;-79
2022/12/06 01:24:31;;;;;;;5.05;2.13;;;4.70;99.90;;;;;;5114787;27;20400;-80
2022/12/06 01:26:56;;;;;;;5.75;1.88;;;4.70;99.90;;;;;;5112109;27;20035;-79
2022/12/06 01:29:22;;;;;;;3.65;1.50;;;4.70;99.90;;;;;;5114885;27;20031;-79
2022/12/06 01:31:47;;;;;;;2.63;1.60;;;4.70;99.90;;;;;;5114449;27;20096;-79
2022/12/06 01:34:16;;;;;;;5.15;1.30;;;4.70;99.90;;;;;;5120859;27;20035;-78
2022/12/06 01:36:41;;;;;;;6.20;1.38;;;4.70;99.90;;;;;;5113855;27;20057;-79
2022/12/06 01:39:09;;;;;;;3.75;1.10;;;4.60;99.90;;;;;;5117171;27;20062;-78
2022/12/06 01:41:35;;;;;;;2.42;1.13;;;4.60;99.90;;;;;;5118853;27;20085;-78
2022/12/06 01:44:02;;;;;;;4.70;1.30;;;4.60;99.90;;;;;;5119397;27;20031;-79
2022/12/06 01:46:40;;;;;;;1.55;0.98;;;4.60;99.90;;;;;;5118277;27;20031;-79
2022/12/06 01:49:11;;;;;;;1.38;0.90;;;4.60;99.90;;;;;;5114734;27;20549;-79
2022/12/06 01:51:42;;;;;;;2.15;0.90;;;4.60;99.90;;;;;;5103759;27;20062;-78
2022/12/06 01:54:12;;;;;;;2.22;0.90;;;4.60;99.90;;;;;;5114639;27;20070;-79
2022/12/06 01:56:38;;;;;;;1.75;1.00;;;4.60;99.90;;;;;;5117583;27;20039;-79
2022/12/06 01:59:05;;;;;;;1.73;1.02;;;4.60;99.90;;;;;;5115028;28;20107;-79
2022/12/06 02:01:32;;;;;;;1.40;0.80;;;4.50;99.90;;;;;;5107251;27;20035;-79
2022/12/06 02:04:00;;;;;;;2.65;0.82;;;4.60;99.90;;;;;;5123073;27;20118;-79
2022/12/06 02:06:27;;;;;;;2.78;1.05;;;4.50;99.90;;;;;;5097114;27;20114;-79
2022/12/06 02:08:55;;;;;;;2.63;0.90;;;4.50;99.90;;;;;;5114177;27;20035;-79
2022/12/06 02:11:20;;;;;;;2.00;0.80;;;4.60;99.90;;;;;;5111939;27;20110;-78
2022/12/06 02:13:46;;;;;;;3.58;1.00;;;4.50;99.90;;;;;;5122383;27;20467;-79
2022/12/06 02:16:32;;;;;;;2.42;0.90;;;4.50;99.90;;;;;;5097966;27;20035;-78
2022/12/06 02:19:24;;;;;;;3.45;1.10;;;4.50;99.90;;;;;;5115192;28;20035;-79
2022/12/06 02:22:05;;;;;;;4.85;0.90;;;4.50;99.90;;;;;;5120389;27;20084;-79
2022/12/06 02:24:58;;;;;;;3.38;1.40;;;4.50;99.90;;;;;;5115391;27;20027;-78
2022/12/06 02:27:40;;;;;;;3.30;1.15;;;4.50;99.90;;;;;;5120315;27;20074;-79
2022/12/06 02:30:12;;;;;;;2.58;1.38;;;4.40;99.90;;;;;;5098213;27;20035;-79
2022/12/06 02:32:46;;;;;;;5.25;1.92;;;4.40;99.90;;;;;;5110392;28;20138;-79
2022/12/06 02:35:27;;;;;;;4.55;1.70;;;4.40;99.90;;;;;;5093156;27;20050;-79
2022/12/06 02:37:57;;;;;;;6.13;1.80;;;4.50;99.90;;;;;;5134005;27;20058;-79
2022/12/06 02:40:32;;;;;;;4.05;1.70;;;4.40;99.90;;;;;;5114870;27;20125;-79
2022/12/06 02:43:04;;;;;;;3.95;1.73;;;4.40;99.90;;;;;;5115109;27;20039;-79
2022/12/06 02:45:36;;;;;;;3.13;1.48;;;4.30;99.90;;;;;;5116379;27;20049;-79
2022/12/06 02:48:04;;;;;;;3.80;1.70;;;4.30;99.90;;;;;;5117062;27;20091;-78
2022/12/06 02:50:36;;;;;;;5.28;1.50;;;4.30;99.90;;;;;;5102361;28;20532;-78
2022/12/06 02:53:05;;;;;;;3.90;1.38;;;4.50;99.90;;;;;;5112587;27;20031;-79
2022/12/06 02:55:32;;;;;;;2.83;1.48;;;4.30;99.90;;;;;;5134171;27;20107;-79
2022/12/06 02:57:57;;;;;;;3.53;1.63;;;4.30;99.90;;;;;;5118362;27;20050;-79
2022/12/06 03:00:31;;;;;;;1.80;1.20;;;4.30;99.90;;;;;;5101504;27;20411;-79
2022/12/06 03:03:26;;;;;;;4.30;1.80;;;4.30;99.90;;;;;;5099746;27;20042;-78
2022/12/06 03:06:00;;;;;;;3.15;1.33;;;4.20;99.90;;;;;;5113189;27;20066;-78
2022/12/06 03:08:53;;;;;;;4.28;1.70;;;4.30;99.90;;;;;;5131788;27;20027;-78
2022/12/06 03:11:19;;;;;;;5.53;1.50;;;4.20;99.90;;;;;;5101565;27;20080;-78
2022/12/06 03:14:01;;;;;;;5.10;1.60;;;4.30;99.90;;;;;;5113815;27;20042;-78
2022/12/06 03:16:58;;;;;;;3.17;1.60;;;4.20;99.90;;;;;;5117117;27;20041;-78
2022/12/06 03:19:26;;;;;;;4.45;1.58;;;4.30;99.90;;;;;;5110207;27;20039;-78
2022/12/06 03:21:59;;;;;;;5.80;1.58;;;4.20;99.90;;;;;;5115564;27;20039;-79
2022/12/06 03:24:27;;;;;;;2.92;1.80;;;4.30;99.90;;;;;;5117889;27;20095;-78
2022/12/06 03:26:56;;;;;;;2.17;1.50;;;4.30;99.90;;;;;;5119287;27;20130;-78
2022/12/06 03:29:25;;;;;;;3.22;1.50;;;4.20;99.90;;;;;;5117910;27;20086;-79
2022/12/06 03:31:52;;;;;;;7.63;2.13;;;4.30;99.90;;;;;;5116924;27;20039;-78
2022/12/06 03:34:23;;;;;;;4.28;1.70;;;4.20;99.90;;;;;;5119356;27;20385;-78
2022/12/06 03:36:50;;;;;;;4.03;1.52;;;4.20;99.90;;;;;;5115978;27;20056;-79
2022/12/06 03:39:28;;;;;;;3.05;1.80;;;4.20;99.90;;;;;;5111617;27;20035;-78
2022/12/06 03:41:57;;;;;;;3.40;1.60;;;4.20;99.90;;;;;;5102671;28;20040;-78
2022/12/06 03:44:24;;;;;;;5.05;1.60;;;4.20;99.90;;;;;;5095337;27;20039;-78
2022/12/06 03:46:53;;;;;;;2.80;1.65;;;4.20;99.90;;;;;;5109976;27;20117;-78
2022/12/06 03:49:29;;;;;;;3.17;2.03;;;4.10;99.90;;;;;;5087875;28;20037;-78
2022/12/06 03:51:55;;;;;;;4.00;1.77;;;4.10;99.90;;;;;;5123666;27;20045;-78
2022/12/06 03:54:21;;;;;;;3.97;1.83;;;4.10;99.90;;;;;;5113246;27;20062;-78
2022/12/06 03:56:46;;;;;;;4.20;1.83;;;4.00;99.90;;;;;;5116376;27;20045;-79
2022/12/06 03:59:12;;;;;;;3.95;1.80;;;4.00;99.90;;;;;;5118689;27;20061;-79
2022/12/06 04:01:38;;;;;;;5.75;1.80;;;4.00;99.90;;;;;;5112190;27;20126;-79
2022/12/06 04:04:04;;;;;;;3.70;1.58;;;3.90;99.90;;;;;;5115875;28;20043;-79
2022/12/06 04:06:30;;;;;;;3.60;2.25;;;3.90;99.90;;;;;;5108125;27;20079;-78
2022/12/06 04:09:51;;;;;;;4.50;1.70;;;3.80;99.90;;;;;;5117388;27;20544;-78
2022/12/06 04:11:41;;;;;;;2.28;1.50;;;3.80;99.90;;;;;;5111397;27;20426;-79
2022/12/06 04:14:06;;;;;;;2.30;1.42;;;3.70;99.90;;;;;;5111664;27;20080;-78
2022/12/06 04:19:16;;;;;;;5.93;1.70;;;3.60;99.90;;;;;;5115914;27;20043;-78
2022/12/06 04:24:25;;;;;;;3.15;1.60;;;3.60;99.90;;;;;;5107020;27;20068;-79
2022/12/06 04:28:40;;;;;;;3.53;1.60;;;3.60;99.90;;;;;;5119269;27;20387;-78
2022/12/06 04:40:33;;;;;;;2.38;1.50;;;3.40;99.90;;;;;;5108165;27;20051;-78
2022/12/06 04:45:42;;;;;;;4.15;1.50;;;3.30;99.90;;;;;;5107633;27;20064;-77
2022/12/06 04:48:09;;;;;;;2.60;1.50;;;3.20;99.90;;;;;;5106237;27;20118;-78
2022/12/06 04:50:35;;;;;;;2.10;1.40;;;3.10;99.90;;;;;;5108722;28;20039;-78
2022/12/06 04:53:01;;;;;;;4.55;1.30;;;3.00;99.90;;;;;;5110729;27;20428;-79
2022/12/06 04:55:27;;;;;;;4.05;1.67;;;2.90;99.90;;;;;;5116761;28;20496;-79
2022/12/06 04:57:53;;;;;;;1.67;1.27;;;2.90;99.90;;;;;;5111015;28;20385;-79
2022/12/06 05:00:19;;;;;;;2.22;1.33;;;2.80;99.90;;;;;;5109140;28;20132;-79
2022/12/06 05:02:44;;;;;;;1.95;1.17;;;2.70;99.90;;;;;;5116882;27;20039;-78
2022/12/06 05:05:10;;;;;;;2.38;1.20;;;2.70;99.90;;;;;;5111077;28;20047;-78
2022/12/06 05:07:36;;;;;;;3.13;1.60;;;2.70;99.90;;;;;;5114807;28;20042;-78
2022/12/06 05:10:01;;;;;;;2.58;1.45;;;2.70;99.90;;;;;;5104458;28;20047;-78
2022/12/06 05:12:27;;;;;;;2.95;1.40;;;2.60;99.90;;;;;;5108427;28;20037;-78
2022/12/06 05:14:52;;;;;;;5.85;1.63;;;2.60;99.90;;;;;;5115631;28;20176;-78
2022/12/06 05:17:18;;;;;;;3.20;1.45;;;2.50;99.90;;;;;;5089013;28;20040;-78
2022/12/06 05:19:43;;;;;;;5.55;1.75;;;2.50;99.90;;;;;;5113194;28;20035;-78
2022/12/06 05:22:09;;;;;;;5.60;1.80;;;2.50;99.90;;;;;;5105240;28;20046;-77
2022/12/06 05:24:34;;;;;;;2.60;1.70;;;2.50;99.90;;;;;;5098519;28;20042;-77
2022/12/06 05:27:00;;;;;;;4.03;2.20;;;2.50;99.90;;;;;;5105132;28;20534;-78
2022/12/06 05:29:25;;;;;;;4.18;2.15;;;2.60;99.90;;;;;;5113678;28;20519;-78
2022/12/06 05:31:51;;;;;;;3.83;1.98;;;2.60;99.90;;;;;;5108666;28;20412;-78
2022/12/06 05:34:16;;;;;;;4.38;1.80;;;2.70;99.90;;;;;;5109641;28;20076;-77
2022/12/06 05:36:44;;;;;;;4.18;1.90;;;2.70;99.90;;;;;;5115230;28;20100;-78
2022/12/06 05:39:10;;;;;;;5.50;2.30;;;2.80;99.90;;;;;;5095902;28;20047;-78
2022/12/06 05:41:36;;;;;;;5.68;2.58;;;2.80;99.90;;;;;;5113240;28;20527;-78
2022/12/06 05:44:01;;;;;;;8.85;2.40;;;2.90;99.90;;;;;;5095093;28;20035;-78
2022/12/06 05:46:27;;;;;;;4.72;2.50;;;2.90;99.90;;;;;;5110729;28;20493;-78
2022/12/06 05:48:52;;;;;;;5.93;2.15;;;2.90;99.90;;;;;;5105325;28;20035;-78
2022/12/06 05:51:18;;;;;;;4.15;2.17;;;2.90;99.90;;;;;;5111777;28;20038;-78
2022/12/06 05:53:43;;;;;;;5.13;2.30;;;2.90;99.90;;;;;;5108384;28;20039;-78
2022/12/06 05:56:10;;;;;;;6.13;2.63;;;2.90;99.90;;;;;;5102156;28;20132;-78
2022/12/06 05:58:37;;;;;;;5.95;2.30;;;2.90;99.90;;;;;;5109855;28;20031;-78
2022/12/06 06:01:04;;;;;;;5.72;2.40;;;2.80;99.90;;;;;;5107611;28;20039;-78
2022/12/06 06:03:30;;;;;;;4.03;2.58;;;2.70;99.90;;;;;;5105492;28;20062;-78
2022/12/06 06:05:58;;;;;;;3.35;2.30;;;2.70;99.90;;;;;;5111470;28;20040;-78
2022/12/06 06:08:23;;;;;;;6.60;2.47;;;2.70;99.90;;;;;;5113165;28;20035;-78
2022/12/06 06:10:49;;;;;;;4.22;2.38;;;2.70;99.90;;;;;;5113482;27;20035;-78
2022/12/06 06:13:15;;;;;;;4.13;2.35;;;2.70;99.90;;;;;;5116772;27;20042;-77
2022/12/06 06:15:40;;;;;;;8.82;2.60;;;2.70;99.90;;;;;;5116068;27;20031;-78
2022/12/06 06:18:06;;;;;;;5.63;2.40;;;2.70;99.90;;;;;;5105158;27;20040;-76
2022/12/06 06:20:31;;;;;;;5.25;2.45;;;2.70;99.90;;;;;;5113729;27;20068;-77
2022/12/06 06:22:57;;;;;;;4.95;2.65;;;2.80;99.90;;;;;;5111219;27;20115;-77
2022/12/06 06:25:22;;;;;;;6.15;2.90;;;2.80;99.90;;;;;;5111543;27;20035;-77
2022/12/06 06:27:48;;;;;;;6.25;2.80;;;2.80;99.90;;;;;;5093272;27;20116;-77
2022/12/06 06:30:14;;;;;;;4.15;2.60;;;2.90;99.90;;;;;;5114582;27;20518;-78
2022/12/06 06:32:39;;;;;;;7.80;2.60;;;2.90;99.90;;;;;;5109166;27;20039;-78
2022/12/06 06:35:06;;;;;;;4.65;2.70;;;2.90;99.90;;;;;;5113237;27;20065;-78
2022/12/06 06:37:32;;;;;;;4.90;2.80;;;2.90;99.90;;;;;;5115785;27;20045;-78
2022/12/06 06:39:59;;;;;;;7.93;2.90;;;2.90;99.90;;;;;;5113612;27;20408;-77
2022/12/06 06:42:24;;;;;;;6.13;3.00;;;2.80;99.90;;;;;;5119395;27;20164;-78
2022/12/06 06:44:50;;;;;;;6.40;2.80;;;2.80;99.90;;;;;;5126276;27;20035;-77
2022/12/06 06:47:16;;;;;;;4.55;2.72;;;2.70;99.90;;;;;;5109801;27;20039;-77
2022/12/06 06:49:41;;;;;;;5.20;2.88;;;2.60;99.90;;;;;;5115489;27;20492;-77
2022/12/06 06:52:07;;;;;;;6.85;3.17;;;2.60;99.90;;;;;;5099959;27;20433;-77
2022/12/06 06:54:33;;;;;;;5.22;2.88;;;2.60;99.90;;;;;;5109543;27;20535;-77
2022/12/06 06:56:58;;;;;;;5.38;2.97;;;2.50;99.90;;;;;;5104454;27;20043;-77
2022/12/06 06:59:24;;;;;;;5.75;2.50;;;2.50;99.90;;;;;;5091537;27;20054;-77
2022/12/06 07:01:50;;;;;;;5.93;2.85;;;2.40;99.90;;;;;;5104052;27;20720;-77
2022/12/06 07:04:16;;;;;;;5.53;2.88;;;2.40;99.90;;;;;;5118023;27;20035;-77
2022/12/06 07:06:42;;;;;;;4.45;2.92;;;2.30;99.90;;;;;;5121027;27;20067;-77
2022/12/06 07:09:08;;;;;;;5.65;2.72;;;2.20;99.90;;;;;;5104344;27;20027;-77
2022/12/06 07:11:33;;;;;;;9.57;3.15;;;2.20;99.90;;;;;;5097814;27;20039;-76
2022/12/06 07:14:01;;;;;;;6.18;3.13;;;2.10;99.90;;;;;;5125724;27;20035;-77
2022/12/06 07:16:27;;;;;;;4.78;2.75;;;2.10;99.90;;;;;;5117418;27;20027;-77
2022/12/06 07:18:52;;;;;;;6.15;2.70;;;2.00;99.90;;;;;;5086009;28;20419;-77
2022/12/06 07:21:18;;;;;;;5.28;3.25;;;2.00;99.90;;;;;;5107567;27;20154;-77
2022/12/06 07:23:44;;;;;;;5.72;2.65;;;2.00;99.90;;;;;;5108139;27;20126;-76
2022/12/06 07:26:15;;;;;;;5.10;2.50;;;2.00;99.90;;;;;;5113119;27;20061;-78
2022/12/06 07:28:43;;;;;;;7.07;3.63;;;2.00;99.90;;;;;;5111561;27;20031;-78
2022/12/06 07:31:14;;;;;;;6.30;3.28;;;2.00;99.90;;;;;;5095349;27;20035;-77
2022/12/06 07:33:41;;;;;;;7.18;3.85;;;2.00;99.90;;;;;;5108695;27;20039;-78
2022/12/06 07:36:07;;;;;;;9.90;3.38;;;1.90;99.90;;;;;;5103360;27;20095;-77
2022/12/06 07:38:33;;;;;;;4.65;3.55;;;1.90;99.90;;;;;;5112804;27;20043;-77
2022/12/06 07:46:41;;;;;;;9.15;5.00;;;1.90;99.90;;;;;;5096260;28;20055;-78
2022/12/06 07:49:08;;;;;;;6.35;3.75;;;1.90;99.90;;;;;;5104586;27;20043;-77
2022/12/06 07:51:33;;;;;;;9.43;4.93;;;1.90;99.90;;;;;;5112634;27;20131;-78
2022/12/06 07:53:59;;;;;;;6.05;4.25;;;1.90;99.90;;;;;;5079480;28;20043;-77
2022/12/06 07:56:25;;;;;;;7.60;4.07;;;1.90;99.90;;;;;;5106442;27;20074;-77
2022/12/06 07:58:50;;;;;;;8.48;3.90;;;1.90;99.90;;;;;;5109496;28;20402;-77
2022/12/06 08:01:16;;;;;;;8.30;4.05;;;1.90;99.90;;;;;;5095464;28;20047;-77
2022/12/06 08:03:42;;;;;;;12.15;4.22;;;1.90;99.90;;;;;;5096268;27;20293;-77
2022/12/06 08:06:07;;;;;;;6.43;4.20;;;1.90;99.90;;;;;;5111909;27;20085;-77
2022/12/06 08:08:34;;;;;;;10.15;4.93;;;1.90;99.90;;;;;;5108094;27;20526;-78
2022/12/06 08:11:02;;;;;;;9.57;4.82;;;1.90;99.90;;;;;;5114663;27;20070;-77
2022/12/06 08:13:28;;;;;;;9.15;5.85;;;2.00;99.90;;;;;;5112067;27;20095;-76
2022/12/06 08:15:54;;;;;;;9.30;5.80;;;2.10;99.90;;;;;;5103201;27;20039;-76
2022/12/06 08:18:19;;;;;;;8.48;4.70;;;2.10;99.90;;;;;;5114430;27;20050;-77
2022/12/06 08:20:45;;;;;;;7.47;4.50;;;2.30;99.90;;;;;;5129938;27;20035;-77
2022/12/06 08:23:11;;;;;;;8.93;4.82;;;2.30;99.90;;;;;;5099815;27;20051;-77
2022/12/06 08:25:36;;;;;;;8.88;5.60;;;2.40;99.90;;;;;;5113968;28;20035;-77
2022/12/06 08:28:02;;;;;;;9.20;5.40;;;2.50;99.90;;;;;;5106528;27;20058;-78
2022/12/06 08:30:28;;;;;;;6.78;4.70;;;2.50;99.90;;;;;;5084737;27;20031;-78
2022/12/06 08:32:54;;;;;;;7.25;4.63;;;2.60;99.90;;;;;;5113767;27;20407;-80
2022/12/06 08:35:19;;;;;;;6.47;4.10;;;2.60;99.90;;;;;;5115332;27;20031;-78
2022/12/06 08:37:45;;;;;;;8.10;4.35;;;2.70;99.90;;;;;;5108712;27;20496;-78
2022/12/06 08:40:11;;;;;;;8.15;4.55;;;2.80;99.90;;;;;;5105401;27;20050;-78
2022/12/06 08:42:36;;;;;;;7.88;5.00;;;2.80;99.90;;;;;;5109837;27;20071;-77
2022/12/06 08:45:02;;;;;;;7.70;4.75;;;2.80;99.90;;;;;;5113856;27;20035;-78
2022/12/06 08:47:28;;;;;;;9.02;4.30;;;2.80;99.90;;;;;;5103463;28;20035;-78
2022/12/06 08:49:53;;;;;;;9.32;4.07;;;2.80;99.90;;;;;;5115676;28;20047;-78
2022/12/06 08:52:19;;;;;;;5.55;3.92;;;2.90;99.90;;;;;;5103247;27;20081;-78
2022/12/06 08:54:45;;;;;;;8.93;4.25;;;3.00;99.90;;;;;;5105504;28;20067;-77
2022/12/06 08:57:11;;;;;;;8.70;3.80;;;3.00;99.90;;;;;;5098557;28;20039;-78
2022/12/06 08:59:36;;;;;;;6.90;3.78;;;3.00;99.90;;;;;;5108633;28;20039;-78
2022/12/06 09:02:02;;;;;;;7.30;3.67;;;3.10;99.90;;;;;;5107713;28;20039;-78
2022/12/06 09:04:28;;;;;;;6.03;3.88;;;3.20;99.90;;;;;;5096917;28;20047;-77
2022/12/06 09:06:53;;;;;;;6.60;3.92;;;3.20;99.90;;;;;;5112736;28;20043;-78
2022/12/06 09:09:19;;;;;;;8.10;4.00;;;3.30;99.90;;;;;;5106843;28;20042;-77
2022/12/06 09:11:47;;;;;;;8.77;4.03;;;3.30;99.90;;;;;;5099225;28;20050;-77
2022/12/06 09:14:15;;;;;;;6.57;3.90;;;3.40;99.90;;;;;;5094949;28;20090;-78
2022/12/06 09:16:42;;;;;;;9.68;4.07;;;3.40;99.90;;;;;;5109371;28;20059;-79
2022/12/06 09:19:11;;;;;;;6.25;4.00;;;3.40;99.90;;;;;;5102629;28;20046;-76
2022/12/06 09:21:38;;;;;;;7.22;4.30;;;3.50;99.90;;;;;;5112741;28;20039;-78
2022/12/06 09:24:05;;;;;;;12.40;4.55;;;3.50;99.90;;;;;;5102005;28;20043;-76
2022/12/06 09:26:31;;;;;;;11.40;4.45;;;3.50;99.90;;;;;;5112759;28;20492;-78
2022/12/06 09:28:57;;;;;;;8.20;4.07;;;3.50;99.90;;;;;;5109674;28;20066;-78
2022/12/06 09:31:23;;;;;;;7.68;4.00;;;3.40;99.90;;;;;;5112955;28;20035;-77
2022/12/06 09:33:49;;;;;;;8.55;3.88;;;3.40;99.90;;;;;;5109397;28;20162;-78
2022/12/06 09:36:24;;;;;;;7.93;3.55;;;3.40;99.90;;;;;;5097280;28;20389;-77
2022/12/06 09:38:55;;;;;;;7.00;3.60;;;3.40;99.90;;;;;;5095054;28;20550;-78
2022/12/06 09:41:42;;;;;;;11.63;3.85;;;3.40;99.90;;;;;;5095326;28;20043;-77
2022/12/06 09:44:34;;;;;;;7.85;3.88;;;3.50;99.90;;;;;;5095197;28;20130;-77
2022/12/06 09:47:41;;;;;;;6.55;3.83;;;3.50;99.90;;;;;;5103332;27;20113;-77
2022/12/06 09:50:09;;;;;;;8.20;4.45;;;3.60;99.90;;;;;;5112402;28;20040;-77
2022/12/06 09:53:01;;;;;;;9.70;3.85;;;3.70;99.90;;;;;;5112089;28;20047;-77
2022/12/06 09:55:39;;;;;;;6.95;3.80;;;3.80;99.90;;;;;;5116183;27;20047;-77
2022/12/06 09:58:42;;;;;;;6.50;3.80;;;3.80;99.90;;;;;;5119896;27;20061;-77
2022/12/06 10:01:45;;;;;;;7.03;3.90;;;3.90;99.90;;;;;;5104367;27;20060;-77
2022/12/06 10:04:49;;;;;;;8.27;4.00;;;4.00;99.90;;;;;;5112771;27;20503;-76
2022/12/06 10:07:57;;;;;;;10.00;3.90;;;4.10;99.90;;;;;;5116962;27;20043;-77
2022/12/06 10:10:37;;;;;;;7.50;4.00;;;4.10;99.90;;;;;;5113256;28;20083;-78
2022/12/06 10:13:20;;;;;;;6.13;4.07;;;4.20;99.90;;;;;;5098324;28;20085;-77
2022/12/06 10:15:59;;;;;;;7.63;4.10;;;4.30;99.90;;;;;;5108047;27;20114;-78
2022/12/06 10:19:01;;;;;;;7.63;3.70;;;4.30;99.90;;;;;;5109418;27;20059;-79
2022/12/06 10:22:11;;;;;;;7.05;3.80;;;4.40;99.90;;;;;;5106044;27;20035;-78
2022/12/06 10:24:42;;;;;;;6.32;3.67;;;4.50;99.90;;;;;;5126158;27;20047;-78
2022/12/06 10:27:21;;;;;;;6.72;3.60;;;4.60;99.90;;;;;;5116586;27;20035;-78
2022/12/06 10:30:00;;;;;;;5.30;3.40;;;4.70;99.90;;;;;;5112818;27;20162;-78
2022/12/06 10:32:35;;;;;;;5.53;3.03;;;4.80;99.90;;;;;;5112827;27;20114;-78
2022/12/06 10:35:17;;;;;;;9.05;3.08;;;4.90;99.90;;;;;;5105545;27;20035;-78
2022/12/06 10:37:57;;;;;;;6.45;3.75;;;4.90;99.90;;;;;;5094716;27;20071;-78
2022/12/06 10:40:25;;;;;;;6.13;3.38;;;5.00;99.90;;;;;;5096976;27;20054;-78
2022/12/06 10:43:21;;;;;;;7.15;3.17;;;5.10;99.90;;;;;;5119312;27;20092;-78
2022/12/06 10:49:28;;;;;;;7.85;3.10;;;5.20;99.90;;;;;;5117527;27;20074;-78
2022/12/06 10:52:04;;;;;;;8.95;3.63;;;5.30;99.90;;;;;;5104113;27;20087;-78
2022/12/06 10:54:38;;;;;;;9.40;4.63;;;5.40;99.90;;;;;;5119388;27;20039;-79
2022/12/06 10:57:12;;;;;;;5.18;3.33;;;5.50;99.90;;;;;;5115130;27;20074;-78
2022/12/06 10:59:47;;;;;;;8.25;4.25;;;5.60;99.90;;;;;;5108428;28;20040;-79
2022/12/06 11:02:27;;;;;;;4.82;2.60;;;5.70;99.90;;;;;;5117164;27;20060;-78
2022/12/06 11:04:58;;;;;;;5.05;2.38;;;5.70;99.90;;;;;;5109667;28;20522;-79
2022/12/06 11:07:31;;;;;;;3.15;2.10;;;5.70;99.90;;;;;;5120550;27;20068;-78
2022/12/06 11:09:57;;;;;;;7.85;2.45;;;5.70;99.90;;;;;;5108157;28;20047;-78
2022/12/06 11:12:35;;;;;;;2.95;1.95;;;5.80;99.90;;;;;;5101198;27;20035;-78
2022/12/06 11:15:21;;;;;;;2.97;1.95;;;5.80;99.90;;;;;;5097499;28;20118;-79
2022/12/06 11:18:10;;;;;;;3.85;2.00;;;5.70;99.90;;;;;;5084974;28;20040;-78
2022/12/06 11:20:52;;;;;;;5.32;2.40;;;5.70;99.90;;;;;;5105661;27;20083;-78
2022/12/06 11:23:23;;;;;;;3.42;2.30;;;5.70;99.90;;;;;;5105612;27;20188;-78
2022/12/06 11:26:16;;;;;;;3.67;2.63;;;5.70;99.90;;;;;;5112650;28;20046;-78
2022/12/06 11:28:50;;;;;;;4.10;2.17;;;5.80;99.90;;;;;;5110537;27;20035;-79
2022/12/06 11:31:24;;;;;;;;;;;5.80;99.90;;;;;;5118653;27;20459;-78
2022/12/06 11:33:49;;;;;;;7.60;2.65;;;5.80;99.90;;;;;;5114263;27;19921;-78
2022/12/06 11:36:15;;;;;;;4.10;2.42;;;5.80;99.90;;;;;;5118008;27;20066;-79
2022/12/06 11:38:42;;;;;;;5.38;2.60;;;5.90;99.90;;;;;;5105232;27;20039;-78
2022/12/06 11:41:12;;;;;;;4.90;2.22;;;5.90;99.90;;;;;;5118614;27;20039;-78
2022/12/06 11:43:38;;;;;;;5.55;2.45;;;5.90;99.90;;;;;;5114896;27;20151;-79
2022/12/06 11:46:05;;;;;;;3.50;2.03;;;5.90;99.90;;;;;;5116734;27;20031;-78
2022/12/06 11:48:34;;;;;;;6.18;2.72;;;5.80;99.90;;;;;;5118307;27;20039;-79
2022/12/06 11:51:00;;;;;;;5.90;2.65;;;5.80;99.90;;;;;;5105252;27;20125;-79
2022/12/06 11:53:28;;;;;;;5.80;2.78;;;5.80;99.90;;;;;;5101957;27;20063;-78
2022/12/06 11:55:59;;;;;;;6.25;2.80;;;5.80;99.90;;;;;;5116130;27;20063;-78
2022/12/06 11:58:51;;;;;;;5.05;2.53;;;5.90;99.90;;;;;;5120152;27;20027;-78
2022/12/06 12:01:16;;;;;;;7.82;3.30;;;6.10;99.90;;;;;;5090766;28;20043;-79
2022/12/06 12:03:44;;;;;;;4.57;3.00;;;6.10;99.90;;;;;;5107000;27;20275;-79
2022/12/06 12:06:26;;;;;;;6.32;3.10;;;6.20;99.90;;;;;;5092266;28;20061;-79
2022/12/06 12:09:03;;;;;;;6.22;3.10;;;6.30;99.90;;;;;;5101800;28;20042;-80
2022/12/06 12:11:40;;;;;;;4.70;2.60;;;6.50;99.90;;;;;;5103217;28;20550;-79
2022/12/06 12:14:22;;;;;;;6.22;2.45;;;6.70;99.90;;;;;;5103086;27;20027;-79
2022/12/06 12:16:50;;;;;;;3.53;2.10;;;6.80;99.90;;;;;;5112607;27;20038;-81
2022/12/06 12:19:30;;;;;;;4.28;2.10;;;6.90;99.90;;;;;;5113011;28;20039;-80
2022/12/06 12:21:58;;;;;;;6.40;2.55;;;6.90;99.90;;;;;;5109184;27;20071;-79
2022/12/06 12:25:20;;;;;;;3.80;2.00;;;6.80;99.90;;;;;;5097143;28;20044;-79
2022/12/06 12:27:52;;;;;;;3.30;1.90;;;7.00;99.90;;;;;;5038621;28;20075;-80
2022/12/06 12:30:19;;;;;;;3.72;2.30;;;7.10;99.90;;;;;;5038416;28;20044;-81
2022/12/06 12:32:45;;;;;;;3.67;2.35;;;7.00;99.90;;;;;;5082246;28;20083;-80
2022/12/06 12:35:20;;;;;;;3.55;2.40;;;7.00;99.90;;;;;;5121057;27;20046;-80
2022/12/06 12:37:50;;;;;;;4.10;2.30;;;6.90;99.90;;;;;;5110586;27;20099;-81
2022/12/06 12:40:34;;;;;;;4.93;2.42;;;6.80;99.90;;;;;;5101859;27;20105;-80
2022/12/06 12:43:14;;;;;;;5.18;2.60;;;6.80;99.90;;;;;;5113217;28;20040;-79
2022/12/06 12:46:08;;;;;;;3.90;2.40;;;6.70;99.90;;;;;;5099947;27;20039;-80
2022/12/06 12:48:34;;;;;;;;;;;6.70;99.90;;;;;;5136171;27;20046;-81
2022/12/06 12:51:04;;;;;;;3.60;2.22;;;6.50;99.90;;;;;;5109342;27;19926;-80
2022/12/06 12:53:39;;;;;;;3.65;2.10;;;6.50;99.90;;;;;;5127332;27;20031;-80
2022/12/06 12:56:16;;;;;;;4.68;2.75;;;6.50;99.90;;;;;;5119138;27;20059;-80
2022/12/06 12:58:42;;;;;;;3.95;2.20;;;6.50;99.90;;;;;;5114205;28;20039;-80
2022/12/06 13:01:36;;;;;;;4.63;2.35;;;6.60;99.90;;;;;;5109443;27;20056;-79
2022/12/06 13:04:13;;;;;;;3.70;1.80;;;6.50;99.90;;;;;;5104465;27;20124;-80
2022/12/06 13:06:58;;;;;;;3.90;2.17;;;6.50;99.90;;;;;;5112642;28;20040;-80
2022/12/06 13:09:27;;;;;;;3.17;2.17;;;6.50;99.90;;;;;;5105442;28;20044;-80
2022/12/06 13:12:00;;;;;;;6.05;2.20;;;6.50;99.90;;;;;;5104085;28;20496;-80
2022/12/06 13:14:27;;;;;;;3.90;2.08;;;6.60;99.90;;;;;;5104597;28;20047;-80
2022/12/06 13:16:56;;;;;;;4.78;2.17;;;6.50;99.90;;;;;;5105211;28;20046;-80
2022/12/06 13:19:29;;;;;;;5.10;2.15;;;6.50;99.90;;;;;;5107338;28;20047;-81
2022/12/06 13:21:55;;;;;;;4.05;2.00;;;6.50;99.90;;;;;;5109303;28;20040;-80
2022/12/06 13:24:28;;;;;;;3.90;2.00;;;6.50;99.90;;;;;;5111024;28;20069;-81
2022/12/06 13:27:01;;;;;;;4.53;1.85;;;6.50;99.90;;;;;;5112260;28;20035;-81
2022/12/06 13:29:32;;;;;;;6.00;2.40;;;6.40;99.90;;;;;;5110078;28;20031;-81
2022/12/06 13:32:06;;;;;;;4.03;2.05;;;6.30;99.90;;;;;;5108505;28;20027;-82
2022/12/06 13:34:37;;;;;;;6.35;2.42;;;6.30;99.90;;;;;;5108845;28;20061;-81
2022/12/06 13:37:23;;;;;;;4.65;2.17;;;6.30;99.90;;;;;;5115197;27;20039;-81
2022/12/06 13:39:49;;;;;;;7.65;3.10;;;6.30;99.90;;;;;;5110804;27;20034;-80
2022/12/06 13:42:40;;;;;;;4.25;2.20;;;6.30;99.90;;;;;;5126440;27;20068;-81
2022/12/06 13:45:35;;;;;;;3.63;1.90;;;6.30;99.90;;;;;;5101238;28;20086;-80